sensor_id;sensor_type;location;lat;lon;timestamp;P1;durP1;ratioP1;P2;durP2;ratioP2
27303;SDS011;14791;52.392;13.092;2023-06-04T00:00:12;1.20;;;1.20;;
27303;SDS011;14791;52.392;13.092;2023-06-04T00:02:41;1.10;;;1.10;;
27303;SDS011;14791;52.392;13.092;2023-06-04T00:05:10;1.60;;;1.50;;
27303;SDS011;14791;52.392;13.092;2023-06-04T00:07:39;1.60;;;1.60;;
27303;SDS011;14791;52.392;13.092;2023-06-04T00:10:08;2.13;;;2.03;;
27303;SDS011;14791;52.392;13.092;2023-06-04T00:12:37;2.10;;;2.03;;
27303;SDS011;14791;52.392;13.092;2023-06-04T00:15:06;1.87;;;1.87;;
27303;SDS011;14791;52.392;13.092;2023-06-04T00:17:36;2.03;;;1.93;;
27303;SDS011;14791;52.392;13.092;2023-06-04T00:20:05;2.40;;;2.30;;
27303;SDS011;14791;52.392;13.092;2023-06-04T00:22:34;2.10;;;2.00;;
27303;SDS011;14791;52.392;13.092;2023-06-04T00:25:03;1.90;;;1.90;;
27303;SDS011;14791;52.392;13.092;2023-06-04T00:27:32;1.93;;;1.93;;
27303;SDS011;14791;52.392;13.092;2023-06-04T00:30:01;1.93;;;1.90;;
27303;SDS011;14791;52.392;13.092;2023-06-04T00:32:31;1.30;;;1.30;;
27303;SDS011;14791;52.392;13.092;2023-06-04T00:34:59;1.90;;;1.80;;
27303;SDS011;14791;52.392;13.092;2023-06-04T00:37:28;1.83;;;1.83;;
27303;SDS011;14791;52.392;13.092;2023-06-04T00:39:58;2.10;;;2.00;;
27303;SDS011;14791;52.392;13.092;2023-06-04T00:42:27;1.83;;;1.83;;
27303;SDS011;14791;52.392;13.092;2023-06-04T00:44:56;1.97;;;1.97;;
27303;SDS011;14791;52.392;13.092;2023-06-04T00:47:25;2.37;;;2.27;;
27303;SDS011;14791;52.392;13.092;2023-06-04T00:50:01;2.10;;;2.00;;
27303;SDS011;14791;52.392;13.092;2023-06-04T00:52:25;2.13;;;1.93;;
27303;SDS011;14791;52.392;13.092;2023-06-04T00:54:54;1.73;;;1.73;;
27303;SDS011;14791;52.392;13.092;2023-06-04T00:57:24;2.47;;;2.37;;
27303;SDS011;14791;52.392;13.092;2023-06-04T00:59:53;2.30;;;2.10;;
27303;SDS011;14791;52.392;13.092;2023-06-04T01:02:22;2.10;;;2.00;;
27303;SDS011;14791;52.392;13.092;2023-06-04T01:04:59;2.20;;;2.10;;
27303;SDS011;14791;52.392;13.092;2023-06-04T01:07:30;2.37;;;2.27;;
27303;SDS011;14791;52.392;13.092;2023-06-04T01:09:59;2.97;;;1.80;;
27303;SDS011;14791;52.392;13.092;2023-06-04T01:12:28;1.60;;;1.60;;
27303;SDS011;14791;52.392;13.092;2023-06-04T01:14:57;1.67;;;1.57;;
27303;SDS011;14791;52.392;13.092;2023-06-04T01:17:39;1.90;;;1.90;;
27303;SDS011;14791;52.392;13.092;2023-06-04T01:20:28;1.83;;;1.73;;
27303;SDS011;14791;52.392;13.092;2023-06-04T01:23:05;2.03;;;1.93;;
27303;SDS011;14791;52.392;13.092;2023-06-04T01:25:51;1.83;;;1.77;;
27303;SDS011;14791;52.392;13.092;2023-06-04T01:28:21;1.60;;;1.60;;
27303;SDS011;14791;52.392;13.092;2023-06-04T01:30:51;2.00;;;2.00;;
27303;SDS011;14791;52.392;13.092;2023-06-04T01:33:23;1.87;;;1.77;;
27303;SDS011;14791;52.392;13.092;2023-06-04T01:35:51;1.97;;;1.87;;
27303;SDS011;14791;52.392;13.092;2023-06-04T01:38:21;1.63;;;1.63;;
27303;SDS011;14791;52.392;13.092;2023-06-04T01:40:50;1.70;;;1.70;;
27303;SDS011;14791;52.392;13.092;2023-06-04T01:43:20;1.77;;;1.77;;
27303;SDS011;14791;52.392;13.092;2023-06-04T01:45:50;2.10;;;2.00;;
27303;SDS011;14791;52.392;13.092;2023-06-04T01:48:19;1.70;;;1.70;;
27303;SDS011;14791;52.392;13.092;2023-06-04T01:50:48;4.10;;;1.80;;
27303;SDS011;14791;52.392;13.092;2023-06-04T01:53:16;1.97;;;1.87;;
27303;SDS011;14791;52.392;13.092;2023-06-04T01:55:46;2.30;;;1.80;;
27303;SDS011;14791;52.392;13.092;2023-06-04T01:58:16;2.37;;;2.17;;
27303;SDS011;14791;52.392;13.092;2023-06-04T02:00:46;2.30;;;2.10;;
27303;SDS011;14791;52.392;13.092;2023-06-04T02:03:16;1.87;;;1.87;;
27303;SDS011;14791;52.392;13.092;2023-06-04T02:05:45;1.80;;;1.70;;
27303;SDS011;14791;52.392;13.092;2023-06-04T02:08:15;1.73;;;1.73;;
27303;SDS011;14791;52.392;13.092;2023-06-04T02:10:46;1.53;;;1.53;;
27303;SDS011;14791;52.392;13.092;2023-06-04T02:13:16;2.00;;;1.90;;
27303;SDS011;14791;52.392;13.092;2023-06-04T02:15:45;1.70;;;1.70;;
27303;SDS011;14791;52.392;13.092;2023-06-04T02:18:18;1.93;;;1.83;;
27303;SDS011;14791;52.392;13.092;2023-06-04T02:20:51;2.17;;;2.10;;
27303;SDS011;14791;52.392;13.092;2023-06-04T02:23:20;2.03;;;1.93;;
27303;SDS011;14791;52.392;13.092;2023-06-04T02:25:49;1.87;;;1.77;;
27303;SDS011;14791;52.392;13.092;2023-06-04T02:28:18;1.90;;;1.80;;
27303;SDS011;14791;52.392;13.092;2023-06-04T02:30:47;3.10;;;1.90;;
27303;SDS011;14791;52.392;13.092;2023-06-04T02:33:16;1.67;;;1.67;;
27303;SDS011;14791;52.392;13.092;2023-06-04T02:35:45;1.80;;;1.80;;
27303;SDS011;14791;52.392;13.092;2023-06-04T02:38:14;1.37;;;1.33;;
27303;SDS011;14791;52.392;13.092;2023-06-04T02:40:43;1.70;;;1.70;;
27303;SDS011;14791;52.392;13.092;2023-06-04T02:43:12;1.50;;;1.47;;
27303;SDS011;14791;52.392;13.092;2023-06-04T02:45:42;1.50;;;1.50;;
27303;SDS011;14791;52.392;13.092;2023-06-04T02:48:11;1.73;;;1.73;;
27303;SDS011;14791;52.392;13.092;2023-06-04T02:50:40;1.70;;;1.60;;
27303;SDS011;14791;52.392;13.092;2023-06-04T02:53:09;1.50;;;1.50;;
27303;SDS011;14791;52.392;13.092;2023-06-04T02:55:38;1.60;;;1.60;;
27303;SDS011;14791;52.392;13.092;2023-06-04T02:58:08;1.67;;;1.57;;
27303;SDS011;14791;52.392;13.092;2023-06-04T03:00:37;1.33;;;1.33;;
27303;SDS011;14791;52.392;13.092;2023-06-04T03:03:07;1.63;;;1.30;;
27303;SDS011;14791;52.392;13.092;2023-06-04T03:05:36;1.33;;;1.33;;
27303;SDS011;14791;52.392;13.092;2023-06-04T03:08:06;1.63;;;1.63;;
27303;SDS011;14791;52.392;13.092;2023-06-04T03:10:35;1.50;;;1.50;;
27303;SDS011;14791;52.392;13.092;2023-06-04T03:13:04;1.70;;;1.60;;
27303;SDS011;14791;52.392;13.092;2023-06-04T03:15:33;1.50;;;1.50;;
27303;SDS011;14791;52.392;13.092;2023-06-04T03:18:04;1.40;;;1.40;;
27303;SDS011;14791;52.392;13.092;2023-06-04T03:20:33;1.60;;;1.60;;
27303;SDS011;14791;52.392;13.092;2023-06-04T03:23:04;1.47;;;1.47;;
27303;SDS011;14791;52.392;13.092;2023-06-04T03:25:33;1.73;;;1.63;;
27303;SDS011;14791;52.392;13.092;2023-06-04T03:28:02;1.50;;;1.50;;
27303;SDS011;14791;52.392;13.092;2023-06-04T03:30:32;1.70;;;1.60;;
27303;SDS011;14791;52.392;13.092;2023-06-04T03:33:02;1.73;;;1.70;;
27303;SDS011;14791;52.392;13.092;2023-06-04T03:35:31;1.60;;;1.53;;
27303;SDS011;14791;52.392;13.092;2023-06-04T03:38:00;1.43;;;1.37;;
27303;SDS011;14791;52.392;13.092;2023-06-04T03:40:30;1.40;;;1.40;;
27303;SDS011;14791;52.392;13.092;2023-06-04T03:42:59;1.90;;;1.80;;
27303;SDS011;14791;52.392;13.092;2023-06-04T03:45:31;1.47;;;1.47;;
27303;SDS011;14791;52.392;13.092;2023-06-04T03:48:01;1.40;;;1.40;;
27303;SDS011;14791;52.392;13.092;2023-06-04T03:50:30;1.70;;;1.60;;
27303;SDS011;14791;52.392;13.092;2023-06-04T03:52:59;1.73;;;1.63;;
27303;SDS011;14791;52.392;13.092;2023-06-04T03:55:30;1.90;;;1.80;;
27303;SDS011;14791;52.392;13.092;2023-06-04T03:58:03;1.40;;;1.40;;
27303;SDS011;14791;52.392;13.092;2023-06-04T04:00:33;2.03;;;1.93;;
27303;SDS011;14791;52.392;13.092;2023-06-04T04:03:03;1.40;;;1.40;;
27303;SDS011;14791;52.392;13.092;2023-06-04T04:05:33;1.70;;;1.70;;
27303;SDS011;14791;52.392;13.092;2023-06-04T04:08:03;1.70;;;1.70;;
27303;SDS011;14791;52.392;13.092;2023-06-04T04:10:33;1.40;;;1.40;;
27303;SDS011;14791;52.392;13.092;2023-06-04T04:13:03;1.40;;;1.40;;
27303;SDS011;14791;52.392;13.092;2023-06-04T04:15:34;1.70;;;1.60;;
27303;SDS011;14791;52.392;13.092;2023-06-04T04:18:03;1.40;;;1.40;;
27303;SDS011;14791;52.392;13.092;2023-06-04T04:20:33;1.70;;;1.60;;
27303;SDS011;14791;52.392;13.092;2023-06-04T04:23:04;1.60;;;1.60;;
27303;SDS011;14791;52.392;13.092;2023-06-04T04:25:33;1.43;;;1.33;;
27303;SDS011;14791;52.392;13.092;2023-06-04T04:28:04;1.77;;;1.67;;
27303;SDS011;14791;52.392;13.092;2023-06-04T04:30:36;1.80;;;1.70;;
27303;SDS011;14791;52.392;13.092;2023-06-04T04:33:06;1.40;;;1.40;;
27303;SDS011;14791;52.392;13.092;2023-06-04T04:35:41;1.70;;;1.60;;
27303;SDS011;14791;52.392;13.092;2023-06-04T04:38:11;1.47;;;1.37;;
27303;SDS011;14791;52.392;13.092;2023-06-04T04:40:42;1.40;;;1.40;;
27303;SDS011;14791;52.392;13.092;2023-06-04T04:43:11;1.00;;;1.00;;
27303;SDS011;14791;52.392;13.092;2023-06-04T04:45:40;1.13;;;1.13;;
27303;SDS011;14791;52.392;13.092;2023-06-04T04:48:10;1.10;;;1.10;;
27303;SDS011;14791;52.392;13.092;2023-06-04T04:50:39;1.20;;;1.20;;
27303;SDS011;14791;52.392;13.092;2023-06-04T04:53:08;1.30;;;1.30;;
27303;SDS011;14791;52.392;13.092;2023-06-04T04:55:37;1.27;;;1.27;;
27303;SDS011;14791;52.392;13.092;2023-06-04T04:58:06;1.10;;;1.00;;
27303;SDS011;14791;52.392;13.092;2023-06-04T05:00:35;1.00;;;1.00;;
27303;SDS011;14791;52.392;13.092;2023-06-04T05:03:04;1.17;;;1.17;;
27303;SDS011;14791;52.392;13.092;2023-06-04T05:05:33;1.07;;;1.07;;
27303;SDS011;14791;52.392;13.092;2023-06-04T05:08:03;1.00;;;1.00;;
27303;SDS011;14791;52.392;13.092;2023-06-04T05:10:33;1.30;;;1.30;;
27303;SDS011;14791;52.392;13.092;2023-06-04T05:13:03;1.33;;;1.10;;
27303;SDS011;14791;52.392;13.092;2023-06-04T05:15:36;1.20;;;1.20;;
27303;SDS011;14791;52.392;13.092;2023-06-04T05:18:07;1.10;;;1.10;;
27303;SDS011;14791;52.392;13.092;2023-06-04T05:20:37;2.53;;;1.10;;
27303;SDS011;14791;52.392;13.092;2023-06-04T05:23:07;0.97;;;0.97;;
27303;SDS011;14791;52.392;13.092;2023-06-04T05:25:37;0.82;;;0.82;;
27303;SDS011;14791;52.392;13.092;2023-06-04T05:28:06;0.83;;;0.83;;
27303;SDS011;14791;52.392;13.092;2023-06-04T05:30:35;1.00;;;1.00;;
27303;SDS011;14791;52.392;13.092;2023-06-04T05:33:06;1.00;;;1.00;;
27303;SDS011;14791;52.392;13.092;2023-06-04T05:35:40;1.10;;;1.10;;
27303;SDS011;14791;52.392;13.092;2023-06-04T05:38:09;0.90;;;0.90;;
27303;SDS011;14791;52.392;13.092;2023-06-04T05:40:40;1.17;;;1.17;;
27303;SDS011;14791;52.392;13.092;2023-06-04T05:43:09;1.10;;;1.10;;
27303;SDS011;14791;52.392;13.092;2023-06-04T05:45:38;0.98;;;0.98;;
27303;SDS011;14791;52.392;13.092;2023-06-04T05:48:07;1.30;;;1.20;;
27303;SDS011;14791;52.392;13.092;2023-06-04T05:50:36;1.20;;;1.10;;
27303;SDS011;14791;52.392;13.092;2023-06-04T05:53:05;1.05;;;1.05;;
27303;SDS011;14791;52.392;13.092;2023-06-04T05:55:34;0.70;;;0.70;;
27303;SDS011;14791;52.392;13.092;2023-06-04T05:58:03;0.80;;;0.80;;
27303;SDS011;14791;52.392;13.092;2023-06-04T06:00:32;0.70;;;0.70;;
27303;SDS011;14791;52.392;13.092;2023-06-04T06:03:01;0.80;;;0.80;;
27303;SDS011;14791;52.392;13.092;2023-06-04T06:05:33;1.00;;;1.00;;
27303;SDS011;14791;52.392;13.092;2023-06-04T06:08:02;1.10;;;1.00;;
27303;SDS011;14791;52.392;13.092;2023-06-04T06:10:32;0.90;;;0.90;;
27303;SDS011;14791;52.392;13.092;2023-06-04T06:13:01;0.80;;;0.80;;
27303;SDS011;14791;52.392;13.092;2023-06-04T06:15:30;0.80;;;0.80;;
27303;SDS011;14791;52.392;13.092;2023-06-04T06:18:00;0.80;;;0.80;;
27303;SDS011;14791;52.392;13.092;2023-06-04T06:20:29;0.72;;;0.72;;
27303;SDS011;14791;52.392;13.092;2023-06-04T06:23:05;0.70;;;0.70;;
27303;SDS011;14791;52.392;13.092;2023-06-04T06:25:37;0.68;;;0.68;;
27303;SDS011;14791;52.392;13.092;2023-06-04T06:28:08;0.62;;;0.62;;
27303;SDS011;14791;52.392;13.092;2023-06-04T06:30:38;0.85;;;0.78;;
27303;SDS011;14791;52.392;13.092;2023-06-04T06:33:07;0.80;;;0.80;;
27303;SDS011;14791;52.392;13.092;2023-06-04T06:35:36;0.80;;;0.80;;
27303;SDS011;14791;52.392;13.092;2023-06-04T06:38:06;0.60;;;0.60;;
27303;SDS011;14791;52.392;13.092;2023-06-04T06:40:35;1.35;;;0.60;;
27303;SDS011;14791;52.392;13.092;2023-06-04T06:43:04;1.27;;;0.80;;
27303;SDS011;14791;52.392;13.092;2023-06-04T06:45:33;0.70;;;0.70;;
27303;SDS011;14791;52.392;13.092;2023-06-04T06:48:02;0.80;;;0.80;;
27303;SDS011;14791;52.392;13.092;2023-06-04T06:50:32;0.93;;;0.93;;
27303;SDS011;14791;52.392;13.092;2023-06-04T06:53:02;1.22;;;0.78;;
27303;SDS011;14791;52.392;13.092;2023-06-04T06:55:31;0.75;;;0.70;;
27303;SDS011;14791;52.392;13.092;2023-06-04T06:58:00;0.65;;;0.65;;
27303;SDS011;14791;52.392;13.092;2023-06-04T07:00:29;0.70;;;0.70;;
27303;SDS011;14791;52.392;13.092;2023-06-04T07:02:58;0.65;;;0.65;;
27303;SDS011;14791;52.392;13.092;2023-06-04T07:05:27;0.62;;;0.62;;
27303;SDS011;14791;52.392;13.092;2023-06-04T07:07:56;0.60;;;0.60;;
27303;SDS011;14791;52.392;13.092;2023-06-04T07:10:25;0.70;;;0.70;;
27303;SDS011;14791;52.392;13.092;2023-06-04T07:12:54;0.62;;;0.62;;
27303;SDS011;14791;52.392;13.092;2023-06-04T07:15:23;0.80;;;0.80;;
27303;SDS011;14791;52.392;13.092;2023-06-04T07:17:52;0.70;;;0.70;;
27303;SDS011;14791;52.392;13.092;2023-06-04T07:20:21;0.80;;;0.80;;
27303;SDS011;14791;52.392;13.092;2023-06-04T07:22:50;0.75;;;0.72;;
27303;SDS011;14791;52.392;13.092;2023-06-04T07:25:19;0.50;;;0.50;;
27303;SDS011;14791;52.392;13.092;2023-06-04T07:27:49;0.60;;;0.60;;
27303;SDS011;14791;52.392;13.092;2023-06-04T07:30:18;0.65;;;0.60;;
27303;SDS011;14791;52.392;13.092;2023-06-04T07:32:47;1.17;;;0.70;;
27303;SDS011;14791;52.392;13.092;2023-06-04T07:35:16;1.25;;;0.70;;
27303;SDS011;14791;52.392;13.092;2023-06-04T07:37:45;0.70;;;0.70;;
27303;SDS011;14791;52.392;13.092;2023-06-04T07:40:16;0.60;;;0.60;;
27303;SDS011;14791;52.392;13.092;2023-06-04T07:42:45;0.50;;;0.50;;
27303;SDS011;14791;52.392;13.092;2023-06-04T07:45:15;0.68;;;0.68;;
27303;SDS011;14791;52.392;13.092;2023-06-04T07:47:44;0.85;;;0.55;;
27303;SDS011;14791;52.392;13.092;2023-06-04T07:50:13;1.75;;;0.68;;
27303;SDS011;14791;52.392;13.092;2023-06-04T07:52:42;0.55;;;0.55;;
27303;SDS011;14791;52.392;13.092;2023-06-04T07:55:11;0.60;;;0.60;;
27303;SDS011;14791;52.392;13.092;2023-06-04T07:57:40;0.60;;;0.60;;
27303;SDS011;14791;52.392;13.092;2023-06-04T08:00:09;1.35;;;0.60;;
27303;SDS011;14791;52.392;13.092;2023-06-04T08:02:38;0.40;;;0.40;;
27303;SDS011;14791;52.392;13.092;2023-06-04T08:05:07;0.88;;;0.88;;
27303;SDS011;14791;52.392;13.092;2023-06-04T08:07:36;0.70;;;0.70;;
27303;SDS011;14791;52.392;13.092;2023-06-04T08:10:05;0.55;;;0.50;;
27303;SDS011;14791;52.392;13.092;2023-06-04T08:12:34;0.40;;;0.40;;
27303;SDS011;14791;52.392;13.092;2023-06-04T08:15:03;0.70;;;0.70;;
27303;SDS011;14791;52.392;13.092;2023-06-04T08:17:32;0.60;;;0.60;;
27303;SDS011;14791;52.392;13.092;2023-06-04T08:20:02;0.50;;;0.50;;
27303;SDS011;14791;52.392;13.092;2023-06-04T08:22:33;1.25;;;0.50;;
27303;SDS011;14791;52.392;13.092;2023-06-04T08:25:02;0.78;;;0.78;;
27303;SDS011;14791;52.392;13.092;2023-06-04T08:27:31;0.47;;;0.47;;
27303;SDS011;14791;52.392;13.092;2023-06-04T08:30:00;0.40;;;0.40;;
27303;SDS011;14791;52.392;13.092;2023-06-04T08:32:29;0.60;;;0.60;;
27303;SDS011;14791;52.392;13.092;2023-06-04T08:34:58;0.55;;;0.55;;
27303;SDS011;14791;52.392;13.092;2023-06-04T08:37:27;2.08;;;0.68;;
27303;SDS011;14791;52.392;13.092;2023-06-04T08:39:56;0.70;;;0.70;;
27303;SDS011;14791;52.392;13.092;2023-06-04T08:42:27;0.65;;;0.65;;
27303;SDS011;14791;52.392;13.092;2023-06-04T08:44:59;0.55;;;0.55;;
27303;SDS011;14791;52.392;13.092;2023-06-04T08:47:29;0.35;;;0.35;;
27303;SDS011;14791;52.392;13.092;2023-06-04T08:50:00;0.68;;;0.68;;
27303;SDS011;14791;52.392;13.092;2023-06-04T08:52:32;0.53;;;0.53;;
27303;SDS011;14791;52.392;13.092;2023-06-04T08:55:01;0.70;;;0.70;;
27303;SDS011;14791;52.392;13.092;2023-06-04T08:57:30;0.42;;;0.42;;
27303;SDS011;14791;52.392;13.092;2023-06-04T08:59:59;0.60;;;0.60;;
27303;SDS011;14791;52.392;13.092;2023-06-04T09:02:28;0.53;;;0.53;;
27303;SDS011;14791;52.392;13.092;2023-06-04T09:04:58;2.45;;;0.68;;
27303;SDS011;14791;52.392;13.092;2023-06-04T09:07:28;2.27;;;0.57;;
27303;SDS011;14791;52.392;13.092;2023-06-04T09:09:59;0.75;;;0.75;;
27303;SDS011;14791;52.392;13.092;2023-06-04T09:12:28;2.58;;;0.80;;
27303;SDS011;14791;52.392;13.092;2023-06-04T09:14:59;0.70;;;0.70;;
27303;SDS011;14791;52.392;13.092;2023-06-04T09:17:29;0.62;;;0.62;;
27303;SDS011;14791;52.392;13.092;2023-06-04T09:19:58;0.75;;;0.75;;
27303;SDS011;14791;52.392;13.092;2023-06-04T09:22:33;0.57;;;0.57;;
27303;SDS011;14791;52.392;13.092;2023-06-04T09:25:03;0.55;;;0.55;;
27303;SDS011;14791;52.392;13.092;2023-06-04T09:27:37;1.62;;;0.70;;
27303;SDS011;14791;52.392;13.092;2023-06-04T09:30:10;0.65;;;0.65;;
27303;SDS011;14791;52.392;13.092;2023-06-04T09:32:39;0.50;;;0.50;;
27303;SDS011;14791;52.392;13.092;2023-06-04T09:35:12;2.05;;;0.75;;
27303;SDS011;14791;52.392;13.092;2023-06-04T09:37:52;0.60;;;0.60;;
27303;SDS011;14791;52.392;13.092;2023-06-04T09:40:23;0.50;;;0.50;;
27303;SDS011;14791;52.392;13.092;2023-06-04T09:42:52;0.90;;;0.90;;
27303;SDS011;14791;52.392;13.092;2023-06-04T09:45:34;0.60;;;0.60;;
27303;SDS011;14791;52.392;13.092;2023-06-04T09:47:59;1.07;;;0.40;;
27303;SDS011;14791;52.392;13.092;2023-06-04T09:50:32;1.32;;;0.70;;
27303;SDS011;14791;52.392;13.092;2023-06-04T09:53:12;0.70;;;0.70;;
27303;SDS011;14791;52.392;13.092;2023-06-04T09:55:57;0.68;;;0.68;;
27303;SDS011;14791;52.392;13.092;2023-06-04T09:58:27;0.60;;;0.60;;
27303;SDS011;14791;52.392;13.092;2023-06-04T10:00:57;0.75;;;0.70;;
27303;SDS011;14791;52.392;13.092;2023-06-04T10:03:32;0.70;;;0.70;;
27303;SDS011;14791;52.392;13.092;2023-06-04T10:06:04;0.50;;;0.50;;
27303;SDS011;14791;52.392;13.092;2023-06-04T10:08:34;0.88;;;0.88;;
27303;SDS011;14791;52.392;13.092;2023-06-04T10:11:03;0.70;;;0.68;;
27303;SDS011;14791;52.392;13.092;2023-06-04T10:13:41;0.68;;;0.68;;
27303;SDS011;14791;52.392;13.092;2023-06-04T10:16:19;0.50;;;0.50;;
27303;SDS011;14791;52.392;13.092;2023-06-04T10:18:51;0.65;;;0.65;;
27303;SDS011;14791;52.392;13.092;2023-06-04T10:21:23;1.30;;;0.95;;
27303;SDS011;14791;52.392;13.092;2023-06-04T10:23:53;0.70;;;0.70;;
27303;SDS011;14791;52.392;13.092;2023-06-04T10:26:23;2.37;;;0.70;;
27303;SDS011;14791;52.392;13.092;2023-06-04T10:28:52;0.90;;;0.70;;
27303;SDS011;14791;52.392;13.092;2023-06-04T10:31:23;0.65;;;0.65;;
27303;SDS011;14791;52.392;13.092;2023-06-04T10:33:56;0.85;;;0.82;;
27303;SDS011;14791;52.392;13.092;2023-06-04T10:36:25;0.82;;;0.82;;
27303;SDS011;14791;52.392;13.092;2023-06-04T10:38:55;0.70;;;0.70;;
27303;SDS011;14791;52.392;13.092;2023-06-04T10:41:24;0.75;;;0.75;;
27303;SDS011;14791;52.392;13.092;2023-06-04T10:44:00;0.65;;;0.65;;
27303;SDS011;14791;52.392;13.092;2023-06-04T10:46:25;0.70;;;0.70;;
27303;SDS011;14791;52.392;13.092;2023-06-04T10:48:55;0.70;;;0.70;;
27303;SDS011;14791;52.392;13.092;2023-06-04T10:51:31;0.88;;;0.88;;
27303;SDS011;14791;52.392;13.092;2023-06-04T10:54:02;0.82;;;0.78;;
27303;SDS011;14791;52.392;13.092;2023-06-04T10:56:36;0.70;;;0.70;;
27303;SDS011;14791;52.392;13.092;2023-06-04T10:59:13;0.55;;;0.55;;
27303;SDS011;14791;52.392;13.092;2023-06-04T11:01:43;0.70;;;0.70;;
27303;SDS011;14791;52.392;13.092;2023-06-04T11:04:19;0.70;;;0.70;;
27303;SDS011;14791;52.392;13.092;2023-06-04T11:07:00;1.05;;;1.05;;
27303;SDS011;14791;52.392;13.092;2023-06-04T11:09:35;1.10;;;1.10;;
27303;SDS011;14791;52.392;13.092;2023-06-04T11:12:05;0.80;;;0.80;;
27303;SDS011;14791;52.392;13.092;2023-06-04T11:14:34;0.65;;;0.62;;
27303;SDS011;14791;52.392;13.092;2023-06-04T11:17:09;0.60;;;0.60;;
27303;SDS011;14791;52.392;13.092;2023-06-04T11:19:39;0.60;;;0.60;;
27303;SDS011;14791;52.392;13.092;2023-06-04T11:22:14;0.68;;;0.68;;
27303;SDS011;14791;52.392;13.092;2023-06-04T11:24:39;0.75;;;0.75;;
27303;SDS011;14791;52.392;13.092;2023-06-04T11:27:08;1.35;;;1.10;;
27303;SDS011;14791;52.392;13.092;2023-06-04T11:29:37;1.30;;;1.30;;
27303;SDS011;14791;52.392;13.092;2023-06-04T11:32:06;1.32;;;1.00;;
27303;SDS011;14791;52.392;13.092;2023-06-04T11:34:35;1.95;;;1.22;;
27303;SDS011;14791;52.392;13.092;2023-06-04T11:37:10;1.07;;;1.02;;
27303;SDS011;14791;52.392;13.092;2023-06-04T11:39:39;0.90;;;0.90;;
27303;SDS011;14791;52.392;13.092;2023-06-04T11:42:10;0.80;;;0.80;;
27303;SDS011;14791;52.392;13.092;2023-06-04T11:44:39;0.75;;;0.75;;
27303;SDS011;14791;52.392;13.092;2023-06-04T11:47:09;1.35;;;0.68;;
27303;SDS011;14791;52.392;13.092;2023-06-04T11:49:39;0.60;;;0.60;;
27303;SDS011;14791;52.392;13.092;2023-06-04T11:52:10;1.05;;;1.05;;
27303;SDS011;14791;52.392;13.092;2023-06-04T11:54:40;1.10;;;1.10;;
27303;SDS011;14791;52.392;13.092;2023-06-04T11:57:09;0.60;;;0.60;;
27303;SDS011;14791;52.392;13.092;2023-06-04T11:59:38;1.02;;;1.02;;
27303;SDS011;14791;52.392;13.092;2023-06-04T12:02:08;0.60;;;0.60;;
27303;SDS011;14791;52.392;13.092;2023-06-04T12:04:36;0.93;;;0.93;;
27303;SDS011;14791;52.392;13.092;2023-06-04T12:07:05;0.50;;;0.50;;
27303;SDS011;14791;52.392;13.092;2023-06-04T12:09:36;0.80;;;0.80;;
27303;SDS011;14791;52.392;13.092;2023-06-04T12:12:07;0.80;;;0.80;;
27303;SDS011;14791;52.392;13.092;2023-06-04T12:14:36;0.82;;;0.82;;
27303;SDS011;14791;52.392;13.092;2023-06-04T12:17:06;0.72;;;0.72;;
27303;SDS011;14791;52.392;13.092;2023-06-04T12:19:48;0.80;;;0.80;;
27303;SDS011;14791;52.392;13.092;2023-06-04T12:22:18;1.05;;;0.70;;
27303;SDS011;14791;52.392;13.092;2023-06-04T12:24:48;0.70;;;0.70;;
27303;SDS011;14791;52.392;13.092;2023-06-04T12:27:24;0.60;;;0.60;;
27303;SDS011;14791;52.392;13.092;2023-06-04T12:29:58;0.93;;;0.93;;
27303;SDS011;14791;52.392;13.092;2023-06-04T12:32:28;0.70;;;0.70;;
27303;SDS011;14791;52.392;13.092;2023-06-04T12:34:57;0.72;;;0.72;;
27303;SDS011;14791;52.392;13.092;2023-06-04T12:37:26;0.68;;;0.60;;
27303;SDS011;14791;52.392;13.092;2023-06-04T12:39:55;0.72;;;0.72;;
27303;SDS011;14791;52.392;13.092;2023-06-04T12:42:24;0.80;;;0.80;;
27303;SDS011;14791;52.392;13.092;2023-06-04T12:44:54;0.70;;;0.70;;
27303;SDS011;14791;52.392;13.092;2023-06-04T12:47:23;0.60;;;0.60;;
27303;SDS011;14791;52.392;13.092;2023-06-04T12:49:52;0.80;;;0.80;;
27303;SDS011;14791;52.392;13.092;2023-06-04T12:52:21;0.60;;;0.60;;
27303;SDS011;14791;52.392;13.092;2023-06-04T12:54:50;0.78;;;0.78;;
27303;SDS011;14791;52.392;13.092;2023-06-04T12:57:19;0.78;;;0.78;;
27303;SDS011;14791;52.392;13.092;2023-06-04T12:59:48;0.68;;;0.68;;
27303;SDS011;14791;52.392;13.092;2023-06-04T13:02:17;0.80;;;0.80;;
27303;SDS011;14791;52.392;13.092;2023-06-04T13:04:45;1.22;;;0.82;;
27303;SDS011;14791;52.392;13.092;2023-06-04T13:07:16;0.75;;;0.75;;
27303;SDS011;14791;52.392;13.092;2023-06-04T13:09:45;0.70;;;0.70;;
27303;SDS011;14791;52.392;13.092;2023-06-04T13:12:14;0.80;;;0.80;;
27303;SDS011;14791;52.392;13.092;2023-06-04T13:14:43;0.90;;;0.90;;
27303;SDS011;14791;52.392;13.092;2023-06-04T13:17:12;0.88;;;0.88;;
27303;SDS011;14791;52.392;13.092;2023-06-04T13:19:40;0.75;;;0.75;;
27303;SDS011;14791;52.392;13.092;2023-06-04T13:22:09;1.00;;;1.00;;
27303;SDS011;14791;52.392;13.092;2023-06-04T13:24:38;0.90;;;0.90;;
27303;SDS011;14791;52.392;13.092;2023-06-04T13:27:07;0.80;;;0.80;;
27303;SDS011;14791;52.392;13.092;2023-06-04T13:29:36;1.55;;;0.90;;
27303;SDS011;14791;52.392;13.092;2023-06-04T13:32:05;0.90;;;0.90;;
27303;SDS011;14791;52.392;13.092;2023-06-04T13:34:34;0.90;;;0.90;;
27303;SDS011;14791;52.392;13.092;2023-06-04T13:37:03;0.90;;;0.90;;
27303;SDS011;14791;52.392;13.092;2023-06-04T13:39:32;0.90;;;0.90;;
27303;SDS011;14791;52.392;13.092;2023-06-04T13:42:01;0.88;;;0.88;;
27303;SDS011;14791;52.392;13.092;2023-06-04T13:44:30;0.98;;;0.98;;
27303;SDS011;14791;52.392;13.092;2023-06-04T13:46:59;0.95;;;0.95;;
27303;SDS011;14791;52.392;13.092;2023-06-04T13:49:28;0.90;;;0.90;;
27303;SDS011;14791;52.392;13.092;2023-06-04T13:51:59;1.15;;;0.93;;
27303;SDS011;14791;52.392;13.092;2023-06-04T13:54:28;1.12;;;0.85;;
27303;SDS011;14791;52.392;13.092;2023-06-04T13:57:01;1.10;;;1.10;;
27303;SDS011;14791;52.392;13.092;2023-06-04T13:59:33;1.00;;;1.00;;
27303;SDS011;14791;52.392;13.092;2023-06-04T14:02:02;0.70;;;0.70;;
27303;SDS011;14791;52.392;13.092;2023-06-04T14:04:31;0.90;;;0.90;;
27303;SDS011;14791;52.392;13.092;2023-06-04T14:07:00;0.90;;;0.90;;
27303;SDS011;14791;52.392;13.092;2023-06-04T14:09:29;0.80;;;0.80;;
27303;SDS011;14791;52.392;13.092;2023-06-04T14:11:58;0.78;;;0.78;;
27303;SDS011;14791;52.392;13.092;2023-06-04T14:14:27;0.85;;;0.85;;
27303;SDS011;14791;52.392;13.092;2023-06-04T14:17:00;0.90;;;0.90;;
27303;SDS011;14791;52.392;13.092;2023-06-04T14:19:37;0.72;;;0.72;;
27303;SDS011;14791;52.392;13.092;2023-06-04T14:22:02;1.05;;;1.05;;
27303;SDS011;14791;52.392;13.092;2023-06-04T14:24:31;1.02;;;1.02;;
27303;SDS011;14791;52.392;13.092;2023-06-04T14:26:59;1.00;;;1.00;;
27303;SDS011;14791;52.392;13.092;2023-06-04T14:29:28;0.70;;;0.70;;
27303;SDS011;14791;52.392;13.092;2023-06-04T14:31:57;1.10;;;1.10;;
27303;SDS011;14791;52.392;13.092;2023-06-04T14:34:26;1.00;;;1.00;;
27303;SDS011;14791;52.392;13.092;2023-06-04T14:36:55;0.90;;;0.90;;
27303;SDS011;14791;52.392;13.092;2023-06-04T14:39:26;0.70;;;0.70;;
27303;SDS011;14791;52.392;13.092;2023-06-04T14:41:55;1.00;;;1.00;;
27303;SDS011;14791;52.392;13.092;2023-06-04T14:44:24;1.25;;;1.25;;
27303;SDS011;14791;52.392;13.092;2023-06-04T14:46:53;1.82;;;1.02;;
27303;SDS011;14791;52.392;13.092;2023-06-04T14:49:22;1.10;;;1.10;;